Time;durP1;ratioP1;P1;durP2;ratioP2;P2;SDS_P1;SDS_P2;PMS_P1;PMS_P2;Temp;Humidity;BMP_temperature;BMP_pressure;BME280_temperature;BME280_humidity;BME280_pressure;Samples;Min_cycle;Max_cycle;Signal;HPM_P1;HPM_P2
2020/12/14 00:04:03;;;;;;;65.97;26.17;;;;;;;2.32;100.00;100488.46;10884785;80;21025;-91
2020/12/14 00:19:07;;;;;;;73.95;28.20;;;;;;;2.39;100.00;100488.55;10913362;81;21108;-92
2020/12/14 00:34:12;;;;;;;68.42;26.50;;;;;;;2.31;100.00;100490.70;10908551;81;21029;-93
2020/12/14 00:49:18;;;;;;;68.03;26.57;;;;;;;2.23;100.00;100507.05;10938354;80;21185;-91
2020/12/14 01:04:28;;;;;;;68.62;27.42;;;;;;;2.31;100.00;100526.94;10654623;82;21035;-88
2020/12/14 01:19:33;;;;;;;77.30;29.37;;;;;;;2.27;100.00;100527.98;10893217;80;21151;-87
2020/12/14 01:34:37;;;;;;;70.35;28.00;;;;;;;2.35;100.00;100539.26;10850353;80;21028;-90
2020/12/14 01:49:42;;;;;;;85.38;31.33;;;;;;;2.42;100.00;100536.30;10897215;80;21101;-91
2020/12/14 02:04:47;;;;;;;77.47;28.90;;;;;;;2.31;100.00;100544.60;10890860;79;21156;-89
2020/12/14 02:19:53;;;;;;;84.97;31.68;;;;;;;2.37;100.00;100547.33;10885673;80;21024;-89
2020/12/14 02:34:58;;;;;;;81.60;29.27;;;;;;;2.33;100.00;100540.63;10900923;80;21486;-90
2020/12/14 02:50:03;;;;;;;74.67;28.75;;;;;;;2.25;100.00;100530.66;10908653;80;21052;-94
2020/12/14 03:05:08;;;;;;;74.20;29.48;;;;;;;2.38;100.00;100546.89;10882223;79;21028;-91
2020/12/14 03:20:12;;;;;;;76.00;30.48;;;;;;;2.30;100.00;100550.69;10891904;80;21058;-90
2020/12/14 03:35:17;;;;;;;79.75;29.10;;;;;;;2.13;100.00;100551.97;10878859;80;21207;-90
2020/12/14 03:50:21;;;;;;;85.70;31.97;;;;;;;2.16;100.00;100547.93;10905616;80;21060;-89
2020/12/14 04:05:25;;;;;;;93.47;30.48;;;;;;;2.09;100.00;100544.80;10499823;83;21098;-89
2020/12/14 04:20:31;;;;;;;75.00;29.18;;;;;;;2.02;100.00;100553.80;10893455;81;21115;-89
2020/12/14 04:35:35;;;;;;;86.80;32.75;;;;;;;2.11;100.00;100567.59;10853856;79;21087;-87
2020/12/14 04:50:41;;;;;;;192.65;97.15;;;;;;;2.04;100.00;100572.66;10847782;81;21048;-85
2020/12/14 05:05:54;;;;;;;81.72;30.72;;;;;;;2.05;100.00;100583.86;10846598;80;21138;-85
2020/12/14 05:21:01;;;;;;;100.12;42.55;;;;;;;2.04;100.00;100588.66;10477629;83;21052;-90
2020/12/14 05:36:05;;;;;;;85.40;31.23;;;;;;;1.98;100.00;100586.73;10574167;83;21053;-89
2020/12/14 05:51:12;;;;;;;81.08;30.08;;;;;;;2.04;100.00;100606.77;10861333;80;21084;-87
2020/12/14 06:06:16;;;;;;;;;;;;;;;2.08;100.00;100608.30;10879793;80;21210;-85
2020/12/14 06:21:24;;;;;;;100.02;37.63;;;;;;;2.10;100.00;100621.98;10893727;81;20158;-87
2020/12/14 06:36:37;;;;;;;415.00;163.82;;;;;;;2.10;100.00;100624.58;10894097;81;21112;-88
2020/12/14 06:51:52;;;;;;;233.25;68.75;;;;;;;2.12;100.00;100619.70;10909110;81;20981;-91
2020/12/14 07:07:19;;;;;;;103.07;36.93;;;;;;;2.14;100.00;100630.02;10867975;81;21135;-86
2020/12/14 07:22:25;;;;;;;209.98;83.30;;;;;;;2.13;100.00;100637.39;10886354;79;21471;-88
2020/12/14 07:37:30;;;;;;;112.40;52.77;;;;;;;2.14;100.00;100651.55;10961824;79;21472;-86
2020/12/14 07:52:35;;;;;;;122.98;58.65;;;;;;;2.18;100.00;100650.10;10924941;81;21060;-86
2020/12/14 08:07:47;;;;;;;163.03;65.97;;;;;;;2.26;100.00;100660.95;10575178;84;21422;-92
2020/12/14 08:22:57;;;;;;;114.08;46.60;;;;;;;2.24;100.00;100665.36;10888721;80;21052;-90
2020/12/14 08:38:05;;;;;;;149.42;59.98;;;;;;;2.13;100.00;100676.22;10500208;82;21016;-89
2020/12/14 08:53:09;;;;;;;159.93;52.67;;;;;;;1.79;100.00;100663.53;10559857;82;21107;-88
2020/12/14 09:08:16;;;;;;;146.18;50.10;;;;;;;1.90;100.00;100670.80;10875766;79;21179;-89
2020/12/14 09:23:20;;;;;;;111.83;39.83;;;;;;;2.09;100.00;100679.86;10901706;81;21116;-89
2020/12/14 09:38:26;;;;;;;129.42;42.98;;;;;;;2.07;100.00;100682.53;10880501;81;21115;-90
2020/12/14 09:53:30;;;;;;;166.12;54.08;;;;;;;2.24;100.00;100670.06;10895600;80;21056;-88
2020/12/14 10:08:34;;;;;;;100.12;39.42;;;;;;;2.38;100.00;100688.84;10871562;80;21036;-88
2020/12/14 10:23:40;;;;;;;128.00;47.80;;;;;;;3.02;100.00;100688.37;10882035;81;21123;-88
2020/12/14 10:38:46;;;;;;;105.63;41.63;;;;;;;3.05;100.00;100685.18;10876123;80;21068;-88
2020/12/14 10:53:50;;;;;;;129.47;50.75;;;;;;;3.11;100.00;100688.73;10932969;80;21100;-88
2020/12/14 11:08:55;;;;;;;108.52;43.80;;;;;;;3.14;100.00;100701.56;10849961;81;21052;-89
2020/12/14 11:23:59;;;;;;;108.17;42.70;;;;;;;3.18;100.00;100675.03;10933513;81;21167;-87
2020/12/14 11:39:05;;;;;;;149.02;55.52;;;;;;;3.30;100.00;100678.28;10461130;82;21068;-88
2020/12/14 11:54:10;;;;;;;258.77;103.45;;;;;;;3.65;100.00;100671.70;10498603;83;21516;-88
2020/12/14 12:09:14;;;;;;;166.90;60.80;;;;;;;3.66;100.00;100666.90;10423087;84;21081;-88
2020/12/14 12:24:21;;;;;;;198.60;69.70;;;;;;;3.78;100.00;100671.89;10392568;84;21069;-87
2020/12/14 12:39:26;;;;;;;163.30;60.30;;;;;;;3.68;100.00;100661.63;10403181;84;21055;-87
2020/12/14 12:54:31;;;;;;;113.88;45.20;;;;;;;3.72;100.00;100638.51;10435721;84;21072;-86
2020/12/14 13:09:36;;;;;;;143.95;57.25;;;;;;;3.77;100.00;100639.55;10403406;83;21133;-86
2020/12/14 13:24:40;;;;;;;171.62;65.45;;;;;;;3.66;100.00;100651.33;10388223;84;21096;-87
2020/12/14 13:39:44;;;;;;;146.02;63.28;;;;;;;3.72;100.00;100654.52;10439498;84;21056;-87
2020/12/14 13:54:49;;;;;;;163.05;73.40;;;;;;;3.70;100.00;100661.09;10794528;81;21166;-88
2020/12/14 14:09:54;;;;;;;315.85;95.30;;;;;;;3.68;100.00;100663.39;10752993;82;21044;-88
2020/12/14 14:24:58;;;;;;;297.77;106.65;;;;;;;3.73;100.00;100652.31;10554136;83;21062;-88
2020/12/14 14:40:04;;;;;;;143.00;56.30;;;;;;;3.68;100.00;100657.73;10717376;82;21088;-88
2020/12/14 14:55:08;;;;;;;183.10;81.47;;;;;;;3.70;100.00;100668.05;10723068;82;20965;-88
2020/12/14 15:10:12;;;;;;;141.92;67.50;;;;;;;3.64;100.00;100682.17;10775791;81;21036;-88
2020/12/14 15:25:16;;;;;;;171.77;62.62;;;;;;;3.62;100.00;100690.51;10747149;82;21072;-87
2020/12/14 15:40:21;;;;;;;111.85;44.20;;;;;;;3.53;100.00;100694.41;10766593;81;21461;-87
2020/12/14 15:55:25;;;;;;;155.97;59.45;;;;;;;3.33;100.00;100673.41;10774216;82;21656;-88
2020/12/14 16:10:33;;;;;;;119.65;47.08;;;;;;;3.42;100.00;100675.52;10722290;81;21582;-87
2020/12/14 16:25:38;;;;;;;171.47;64.03;;;;;;;3.44;100.00;100681.45;10693889;82;21067;-88
2020/12/14 16:40:42;;;;;;;646.75;195.82;;;;;;;3.43;100.00;100673.75;10427187;84;21069;-86
2020/12/14 16:55:47;;;;;;;249.88;108.87;;;;;;;3.46;100.00;100687.88;10500464;83;21024;-87
2020/12/14 17:10:52;;;;;;;444.82;188.75;;;;;;;3.35;100.00;100691.00;10385068;84;21097;-88
2020/12/14 17:25:57;;;;;;;189.40;87.15;;;;;;;3.32;100.00;100695.06;10745311;81;21068;-87
2020/12/14 17:41:02;;;;;;;114.88;49.33;;;;;;;3.24;100.00;100678.59;10746886;82;21087;-86
2020/12/14 17:56:06;;;;;;;164.57;74.10;;;;;;;3.20;100.00;100697.82;10738669;82;21028;-85
2020/12/14 18:11:11;;;;;;;117.30;49.93;;;;;;;3.22;100.00;100673.10;10768813;81;21159;-85
2020/12/14 18:26:22;;;;;;;127.00;51.45;;;;;;;3.27;100.00;100684.94;10756344;82;21068;-85
2020/12/14 21:31:18;;;;;;;77.10;35.58;;;;;;;3.12;100.00;100701.27;10703760;81;21064;-83
2020/12/14 21:46:24;;;;;;;79.03;33.67;;;;;;;3.10;100.00;100701.34;10684273;81;21059;-83
2020/12/14 22:01:31;;;;;;;73.72;31.97;;;;;;;3.08;100.00;100726.50;10626183;83;21102;-80
2020/12/14 22:16:38;;;;;;;71.20;31.97;;;;;;;3.08;100.00;100716.13;10690672;82;20993;-82
2020/12/14 22:31:43;;;;;;;75.03;32.40;;;;;;;3.14;100.00;100703.30;10714516;82;21540;-80
2020/12/14 22:46:48;;;;;;;72.17;30.90;;;;;;;2.97;100.00;100699.81;10710324;82;21075;-85
2020/12/14 23:18:11;;;;;;;73.67;32.77;;;;;;;2.75;100.00;100664.22;10728068;82;21080;-82
2020/12/14 23:33:16;;;;;;;70.65;33.65;;;;;;;2.39;100.00;100668.52;10369042;84;21052;-82
2020/12/14 23:48:21;;;;;;;68.25;29.75;;;;;;;2.40;100.00;100687.04;10715668;82;21488;-86
